Smithfield - 24 Hour Table
Date & TimeSolar
Radiation
(W/m²)
Wind
Speed
(mph)
Wind
Direction
(degrees)
Air
Temperature
(°F)
Relative
Humidity
(%)
Precipitation
(inches)
2017/02/25 08:00 29 2.4 64 15.0 89 0.00
2017/02/25 07:00 0 2.8 37 13.7 90 0.00
2017/02/25 06:00 0 2.6 68 13.7 92 0.00
2017/02/25 05:00 0 2.5 64 13.8 90 0.00
2017/02/25 04:00 0 3.0 46 14.3 86 0.00
2017/02/25 03:00 0 2.7 40 14.9 86 0.00
2017/02/25 02:00 0 3.7 42 15.8 84 0.00
2017/02/25 01:00 0 3.9 49 15.3 82 0.00
2017/02/25 00:00 0 3.3 61 15.3 86 0.00
2017/02/24 23:00 0 3.6 82 15.7 84 0.00
2017/02/24 22:00 0 3.4 86 17.7 78 0.00
2017/02/24 21:00 0 3.8 55 19.1 79 0.00
2017/02/24 20:00 0 4.1 51 20.9 75 0.00
2017/02/24 19:00 4 3.7 59 22.2 77 0.00
2017/02/24 18:00 87 2.7 51 24.1 73 0.00
2017/02/24 17:00 182 4.0 71 24.0 76 0.00
2017/02/24 16:00 278 4.0 301 24.2 83 0.00
2017/02/24 15:00 581 5.2 278 25.4 76 0.00
2017/02/24 14:00 519 4.8 300 24.9 87 0.00
2017/02/24 13:00 418 3.5 344 24.5 89 0.05
2017/02/24 12:00 390 4.3 319 24.0 88 0.04
2017/02/24 11:00 198 4.6 23 22.8 91 0.00
2017/02/24 10:00 115 4.5 32 22.1 93 0.00
2017/02/24 09:00 56 2.2 350 21.8 95 0.00